Portada
METAR-TAF:

METAR-TAF

Aeroports :

Gove Peninsula, Austràlia

latitud: 12-16-12S, longitud: 136-49-06E, altitud: 62 m

Observació

L'informe es va fer fa 15 minuts, a les 13:30 UTC
Vent 7 kt del Est
Temperatura 27°C
Humitat 74%
Pressió 1010 hPa
Visibilitat 10 km o més

METAR: YPGV 071330Z AUTO 09007KT 9999 // NCD 27/22 Q1010 RF00.0/002.2

Hora: 23:15 (13:45 UTC)

Pronòstic

L'informe es va fer fa 35 minuts, a les 13:10 UTC
Pronòstic vàlid del 07 a les 13 UTC al 08 a les 02 UTC
Vent 8 kt del Est
Visibilitat: 4000 m
Núvols disperses a una alçada de 2000 ft
Núvols disperses a una alçada de 1000 ft
Cel ennuvolat a una alçada de 2000 ft
xàfecs de pluja

TAF: YPGV 071310Z 0713/0802 10008KT 9999 SCT020 INTER 0800/0802 4000 SHRA SCT010 BKN020

Observacions i pronòstics meteorològics de més de 4000 aeroports (METAR i TAF).

Les estacions disponibles són els punts grocs i vermells al mapa.

Posi el ratolí al punt desitjat per veure el nom de l'estació.

Feu clic per veure les observacions i els pronòstics meteorològics.

Per canviar el mapa: feu clic els botons verds amb una creu de color negre per apropar; al botó verd amb un guió per allunyar la imatge; o en les fletxes verdes per a mapes adjacents.


METAR-TAF: